ENAN/ANX METAR and TAF weather

Enter ICAO airport designator
Station Type Date Time Source
ENAN METAR 2018/12/10 20:20 UTC NOAA

ENAN 102020Z 07015KT 9999 BKN038 03/M03 Q1016


Station Type Date Time Source
ENAN Decoded METAR 2018/12/10 20:20 UTC NOAA

Andoya, Norway (ENAN) 69-18N 016-09E 14M
Dec 10, 2018 - 03:20 PM EST / 2018.12.10 2020 UTC
Wind: from the ENE (070 degrees) at 17 MPH (15 KT):0
Visibility: greater than 7 mile(s):0
Sky conditions: mostly cloudy
Temperature: 37 F (3 C)
Dew Point: 26 F (-3 C)
Relative Humidity: 64%
Pressure (altimeter): 30.00 in. Hg (1016 hPa)
ob: ENAN 102020Z 07015KT 9999 BKN038 03/M03 Q1016
cycle: 20

Station Type Date Time Source
ENAN TAF 2018/12/10 18:58 UTC NOAA

TAF ENAN 101700Z 1018/1118 06015KT 9999 FEW015 SCT025
BECMG 1101/1104 20008KT PROB40
TEMPO 1102/1116 3000 SHSNRA VV012
BECMG 1112/1114 27010KT


Example: see airport list